• Join FlightAware (Why Join?)
  • Login
  • US Flag 
12:36AM EDT


 

Airport Tracker/Info


-or-


 

Live Flight TrackerFlight Track Log ✈ CES5528 ✈ 04-Aug-2013 ✈ ZHLY / LYA - ZSSS / SHA

Flight Track Log - Related Links

Times and Time Zones

All times are in EDT time to prevent confusion due to time zone crossing. See the CES5528 flight status page for this flight to view local times or setup timezone preferences in your user account.

Time Position Orientation Groundspeed Altitude Reporting Facility
EDT Latitude Longitude Course Direction KTS MPH feet Rate Location/Type
12:14PM 33.9048 114.7239 113° Southeast  Level Estimated
12:15PM 33.8595 114.8456 114° Southeast  Level Estimated
12:16PM 33.8142 114.9671 114° Southeast  Level Estimated
12:17PM 33.7687 115.0885 114° Southeast  Level Estimated
12:18PM 33.7231 115.2097 114° Southeast  Level Estimated
12:19PM 33.6774 115.3308 114° Southeast  Level Estimated
12:20PM 33.6316 115.4518 114° Southeast  Level Estimated
12:21PM 33.5856 115.5727 115° Southeast  Level Estimated
12:22PM 33.5396 115.6934 115° Southeast  Level Estimated
12:23PM 33.4934 115.8140 115° Southeast  Level Estimated
12:24PM 33.4471 115.9345 115° Southeast  Level Estimated
12:25PM 33.4007 116.0548 115° Southeast  Level Estimated
12:26PM 33.3542 116.1751 115° Southeast  Level Estimated
12:27PM 33.3075 116.2952 115° Southeast  Level Estimated
12:28PM 33.2608 116.4151 115° Southeast  Level Estimated
12:29PM 33.2139 116.5350 115° Southeast  Level Estimated
12:30PM 33.1669 116.6547 115° Southeast  Level Estimated
12:31PM 33.1198 116.7742 115° Southeast  Level Estimated
12:32PM 33.0726 116.8937 115° Southeast  Level Estimated
12:33PM 33.0252 117.0130 115° Southeast  Level Estimated
12:34PM 32.9765 117.1355 115° Southeast  Level Estimated
12:35PM 32.9276 117.2578 115° Southeast  Level Estimated
12:36PM 32.8786 117.3800 115° Southeast  Level Estimated
12:37PM 32.8295 117.5020 116° Southeast  Level Estimated
12:38PM 32.7803 117.6239 116° Southeast  Level Estimated
12:39PM 32.7310 117.7457 116° Southeast  Level Estimated
12:40PM 32.6815 117.8673 116° Southeast  Level Estimated
12:41PM 32.6319 117.9889 116° Southeast  Level Estimated
12:42PM 32.5822 118.1102 116° Southeast  Level Estimated
12:43PM 32.5324 118.2315 116° Southeast  Level Estimated
12:44PM 32.4825 118.3526 116° Southeast  Level Estimated
12:45PM 32.4325 118.4736 116° Southeast  Level Estimated
12:46PM 32.3823 118.5944 116° Southeast  Level Estimated
12:47PM 32.3320 118.7151 116° Southeast  Level Estimated
12:48PM 32.2817 118.8357 116° Southeast  Level Estimated
12:49PM 32.2312 118.9561 116° Southeast  Level Estimated
12:50PM 32.1805 119.0764 116° Southeast  Level Estimated
12:51PM 32.1298 119.1966 116° Southeast  Level Estimated
12:52PM 32.0790 119.3166 117° Southeast  Level Estimated
12:52PM 31.6090 118.9850 117° Southeast 509 586 28,300  Level FlightAware
12:52PM 31.6090 119.0740 90° East 509 586 28,300 -1,020 Level FlightAware
12:53PM 32.0280 119.4365 117° Southeast  Level Estimated
12:53PM 31.6080 119.2050 90° East 496 571 26,900  Level FlightAware
12:54PM 31.6080 119.2830 90° East 496 571 26,900  Level FlightAware
12:54PM 31.6080 119.3650 90° East 496 571 26,900  Level FlightAware
12:55PM 31.6080 119.4480 90° East 496 571 26,900  Level FlightAware
12:56PM 31.6080 119.5300 90° East 496 571 26,900  Level FlightAware
12:56PM 31.6080 119.6120 90° East 496 571 26,900 -5,940 Level FlightAware
12:57PM 31.6000 119.7750 93° East 441 507 19,400 -6,300 Descending FlightAware
12:58PM 31.5980 119.8700 91° East 442 509 18,400 -1,440 Descending FlightAware
12:58PM 31.5970 119.9580 91° East 458 527 17,600 -1,500 Descending FlightAware
12:59PM 31.5960 120.0460 91° East 467 537 16,700 -1,620 Descending FlightAware
12:59PM 31.5940 120.1220 92° East 453 521 15,900 -1,500 Descending FlightAware
12:59PM 31.5940 120.1460 90° East 449 517 15,700 -780 Descending FlightAware
01:01PM 31.5890 120.3200 92° East 446 513 14,800 -540 Descending FlightAware
01:01PM 31.5680 120.4020 107° East 439 505 14,800  Level FlightAware
01:02PM 31.5450 120.4780 110° East 439 505 14,800 -600 Level FlightAware
01:02PM 31.5230 120.5510 109° East 435 501 14,200 -2,040 Descending FlightAware
01:03PM 31.4830 120.6800 110° East 410 472 11,800 -2,160 Descending FlightAware
01:04PM 31.4610 120.7520 110° East 392 451 10,800 -1,320 Descending FlightAware
01:04PM 31.4460 120.8010 110° East 365 420 10,500 -600 Descending FlightAware
01:05PM 31.4250 120.8710 109° East 327 376 10,200 -720 Descending FlightAware
01:05PM 31.4150 120.9040 110° East 317 365 9,800 -1,320 Descending FlightAware
01:06PM 31.4000 120.9520 110° East 312 359 9,100 -1,560 Descending FlightAware
01:06PM 31.3880 120.9920 109° East 308 354 8,400 -1,620 Descending FlightAware
01:07PM 31.3720 121.0200 124° Southeast 299 344 7,900 -1,740 Descending FlightAware
01:07PM 31.3570 121.0360 138° Southeast 299 344 7,400 -1,560 Descending FlightAware
01:07PM 31.3340 121.0520 149° Southeast 284 327 7,000 -1,200 Descending FlightAware
01:07PM 31.3170 121.0640 149° Southeast 279 321 6,700 -1,380 Descending FlightAware
01:08PM 31.2920 121.0800 151° Southeast 282 325 6,200 -1,500 Descending FlightAware
01:08PM 31.2750 121.0910 151° Southeast 279 321 5,800 -1,320 Descending FlightAware
01:09PM 31.2380 121.1160 150° Southeast 272 313 5,100 -1,080 Descending FlightAware
01:09PM 31.2210 121.1270 151° Southeast 261 300 4,900 -1,320 Descending FlightAware
01:10PM 31.1750 121.1640 145° Southeast 267 307 3,800 -1,200 Descending FlightAware
01:10PM 31.1460 121.2040 130° Southeast 258 297 3,200 -540 Descending FlightAware
01:11PM 31.1290 121.2280 130° Southeast 247 284 3,200  Level FlightAware
01:11PM 31.1230 121.2350 135° Southeast 222 255 3,200  Level FlightAware
01:11PM 31.1080 121.2500 139° Southeast 214 246 3,200 -180 Level FlightAware
01:12PM 31.0950 121.2620 142° Southeast 103 119 3,100 -780 Descending FlightAware
01:12PM 31.0740 121.3040 120° Southeast 191 220 2,300 -900 Descending FlightAware
01:13PM 31.0760 121.3310 85° East 183 211 2,000 -360 Descending FlightAware
01:13PM 31.0820 121.3520 72° East 183 211 2,000 -720 Level FlightAware
01:15PM 31.1580 121.3390 352° North 142 163 700 -840 Descending FlightAware
01:15PM 31.1660 121.3380 354° North 138 159 600 -600 Descending FlightAware
01:15PM 31.1820 121.3370 357° North 137 158 300 -840 Descending FlightAware
01:16PM 31.1940 121.3370 360° North 134 154 -900 Descending FlightAware
01:16PM 31.2010 121.3360 353° North 134 154  Level FlightAware
01:16PM 31.2160 121.3350 357° North 134 154  Level FlightAware
01:19PM 31.1979 121.3363 176° South  Level Estimated
01:20PM 31.1979 121.3363 350° North  Level Estimated
01:21PM 31.1979 121.3363 350° North  Level Estimated
01:22PM 31.1979 121.3363 350° North  Level Estimated
01:23PM 31.1979 121.3363 350° North  Level Estimated
01:24PM 31.1979 121.3363 350° North  Level Estimated